sensor_id;sensor_type;location;lat;lon;timestamp;pressure;altitude;pressure_sealevel;temperature;humidity
20624;BME280;10471;42.736;23.346;2023-07-16T00:00:27;95728.97;;;23.35;100.00
20624;BME280;10471;42.736;23.346;2023-07-16T00:02:52;95737.03;;;23.35;100.00
20624;BME280;10471;42.736;23.346;2023-07-16T00:05:18;95730.94;;;23.38;100.00
20624;BME280;10471;42.736;23.346;2023-07-16T00:07:43;95732.97;;;23.41;100.00
20624;BME280;10471;42.736;23.346;2023-07-16T00:10:09;95723.13;;;23.33;100.00
20624;BME280;10471;42.736;23.346;2023-07-16T00:12:34;95732.31;;;23.32;100.00
20624;BME280;10471;42.736;23.346;2023-07-16T00:14:59;95724.50;;;23.27;100.00
20624;BME280;10471;42.736;23.346;2023-07-16T00:17:25;95728.31;;;23.26;100.00
20624;BME280;10471;42.736;23.346;2023-07-16T00:19:50;95726.06;;;23.28;100.00
20624;BME280;10471;42.736;23.346;2023-07-16T00:22:16;95728.31;;;23.26;100.00
20624;BME280;10471;42.736;23.346;2023-07-16T00:24:41;95718.97;;;23.20;100.00
20624;BME280;10471;42.736;23.346;2023-07-16T00:27:06;95727.81;;;23.20;100.00
20624;BME280;10471;42.736;23.346;2023-07-16T00:29:32;95724.16;;;23.13;100.00
20624;BME280;10471;42.736;23.346;2023-07-16T00:31:57;95724.84;;;23.10;100.00
20624;BME280;10471;42.736;23.346;2023-07-16T00:34:22;95730.13;;;23.07;100.00
20624;BME280;10471;42.736;23.346;2023-07-16T00:36:48;95732.38;;;23.05;100.00
20624;BME280;10471;42.736;23.346;2023-07-16T00:39:13;95729.59;;;23.01;100.00
20624;BME280;10471;42.736;23.346;2023-07-16T00:41:39;95726.13;;;23.01;100.00
20624;BME280;10471;42.736;23.346;2023-07-16T00:44:05;95729.13;;;22.99;100.00
20624;BME280;10471;42.736;23.346;2023-07-16T00:46:30;95726.22;;;23.04;100.00
20624;BME280;10471;42.736;23.346;2023-07-16T00:48:56;95723.09;;;23.02;100.00
20624;BME280;10471;42.736;23.346;2023-07-16T00:51:22;95727.69;;;23.02;100.00
20624;BME280;10471;42.736;23.346;2023-07-16T00:53:49;95727.69;;;23.02;100.00
20624;BME280;10471;42.736;23.346;2023-07-16T00:56:16;95732.38;;;23.05;100.00
20624;BME280;10471;42.736;23.346;2023-07-16T00:58:43;95722.75;;;23.04;100.00
20624;BME280;10471;42.736;23.346;2023-07-16T01:01:08;95728.47;;;23.02;100.00
20624;BME280;10471;42.736;23.346;2023-07-16T01:03:33;95726.91;;;23.01;100.00
20624;BME280;10471;42.736;23.346;2023-07-16T01:06:10;95727.47;;;22.95;100.00
20624;BME280;10471;42.736;23.346;2023-07-16T01:08:45;95735.88;;;22.93;100.00
20624;BME280;10471;42.736;23.346;2023-07-16T01:11:12;95732.13;;;22.82;100.00
20624;BME280;10471;42.736;23.346;2023-07-16T01:13:38;95726.50;;;22.87;100.00
20624;BME280;10471;42.736;23.346;2023-07-16T01:16:04;95726.03;;;22.85;100.00
20624;BME280;10471;42.736;23.346;2023-07-16T01:18:30;95731.09;;;22.87;100.00
20624;BME280;10471;42.736;23.346;2023-07-16T01:20:55;95729.44;;;22.82;100.00
20624;BME280;10471;42.736;23.346;2023-07-16T01:24:16;95727.66;;;22.74;100.00
20624;BME280;10471;42.736;23.346;2023-07-16T01:26:32;95725.66;;;22.71;100.00
20624;BME280;10471;42.736;23.346;2023-07-16T01:29:35;95726.00;;;22.70;100.00
20624;BME280;10471;42.736;23.346;2023-07-16T01:32:03;95730.59;;;22.69;100.00
20624;BME280;10471;42.736;23.346;2023-07-16T01:34:32;95725.69;;;22.59;100.00
20624;BME280;10471;42.736;23.346;2023-07-16T01:37:02;95730.16;;;22.67;100.00
20624;BME280;10471;42.736;23.346;2023-07-16T01:39:28;95720.44;;;22.63;100.00
20624;BME280;10471;42.736;23.346;2023-07-16T01:41:55;95732.88;;;22.55;100.00
20624;BME280;10471;42.736;23.346;2023-07-16T01:44:21;95732.44;;;22.53;100.00
20624;BME280;10471;42.736;23.346;2023-07-16T01:47:09;95736.03;;;22.57;100.00
20624;BME280;10471;42.736;23.346;2023-07-16T01:49:35;95736.28;;;22.52;100.00
20624;BME280;10471;42.736;23.346;2023-07-16T01:52:02;95737.38;;;22.51;100.00
20624;BME280;10471;42.736;23.346;2023-07-16T01:54:28;95733.59;;;22.52;100.00
20624;BME280;10471;42.736;23.346;2023-07-16T01:56:54;95732.25;;;22.46;100.00
20624;BME280;10471;42.736;23.346;2023-07-16T01:59:19;95732.59;;;22.45;100.00
20624;BME280;10471;42.736;23.346;2023-07-16T02:01:44;95734.59;;;22.48;100.00
20624;BME280;10471;42.736;23.346;2023-07-16T02:04:10;95727.53;;;22.43;100.00
20624;BME280;10471;42.736;23.346;2023-07-16T02:06:35;95727.78;;;22.39;100.00
20624;BME280;10471;42.736;23.346;2023-07-16T02:09:00;95725.78;;;22.36;100.00
20624;BME280;10471;42.736;23.346;2023-07-16T02:11:26;95726.91;;;22.35;100.00
20624;BME280;10471;42.736;23.346;2023-07-16T02:13:51;95732.72;;;22.37;100.00
20624;BME280;10471;42.736;23.346;2023-07-16T02:16:16;95724.22;;;22.35;100.00
20624;BME280;10471;42.736;23.346;2023-07-16T02:18:42;95719.63;;;22.35;100.00
20624;BME280;10471;42.736;23.346;2023-07-16T02:21:07;95722.66;;;22.34;100.00
20624;BME280;10471;42.736;23.346;2023-07-16T02:23:33;95729.47;;;22.31;100.00
20624;BME280;10471;42.736;23.346;2023-07-16T02:25:58;95733.97;;;22.27;100.00
20624;BME280;10471;42.736;23.346;2023-07-16T02:28:23;95724.91;;;22.20;100.00
20624;BME280;10471;42.736;23.346;2023-07-16T02:30:50;95729.94;;;22.21;100.00
20624;BME280;10471;42.736;23.346;2023-07-16T02:33:16;95739.00;;;22.17;100.00
20624;BME280;10471;42.736;23.346;2023-07-16T02:35:46;95737.69;;;22.11;100.00
20624;BME280;10471;42.736;23.346;2023-07-16T02:38:11;95740.38;;;22.11;100.00
20624;BME280;10471;42.736;23.346;2023-07-16T02:40:42;95738.13;;;22.01;100.00
20624;BME280;10471;42.736;23.346;2023-07-16T02:43:08;95743.81;;;21.99;100.00
20624;BME280;10471;42.736;23.346;2023-07-16T02:45:33;95737.69;;;21.99;100.00
20624;BME280;10471;42.736;23.346;2023-07-16T02:47:59;95735.22;;;21.94;100.00
20624;BME280;10471;42.736;23.346;2023-07-16T02:50:24;95738.78;;;21.86;100.00
20624;BME280;10471;42.736;23.346;2023-07-16T02:52:49;95742.50;;;21.81;100.00
20624;BME280;10471;42.736;23.346;2023-07-16T02:55:15;95737.91;;;21.82;100.00
20624;BME280;10471;42.736;23.346;2023-07-16T02:57:40;95744.19;;;21.74;100.00
20624;BME280;10471;42.736;23.346;2023-07-16T03:00:06;95736.56;;;21.76;100.00
20624;BME280;10471;42.736;23.346;2023-07-16T03:02:31;95746.75;;;21.71;100.00
20624;BME280;10471;42.736;23.346;2023-07-16T03:04:57;95746.41;;;21.72;100.00
20624;BME280;10471;42.736;23.346;2023-07-16T03:07:22;95743.72;;;21.72;100.00
20624;BME280;10471;42.736;23.346;2023-07-16T03:09:47;95752.91;;;21.71;100.00
20624;BME280;10471;42.736;23.346;2023-07-16T03:12:13;95749.31;;;21.67;100.00
20624;BME280;10471;42.736;23.346;2023-07-16T03:14:38;95742.72;;;21.65;100.00
20624;BME280;10471;42.736;23.346;2023-07-16T03:17:04;95750.91;;;21.68;100.00
20624;BME280;10471;42.736;23.346;2023-07-16T03:19:31;95748.56;;;21.67;100.00
20624;BME280;10471;42.736;23.346;2023-07-16T03:21:57;95753.69;;;21.72;100.00
20624;BME280;10471;42.736;23.346;2023-07-16T03:24:22;95753.34;;;21.73;100.00
20624;BME280;10471;42.736;23.346;2023-07-16T03:26:47;95751.13;;;21.75;100.00
20624;BME280;10471;42.736;23.346;2023-07-16T03:29:13;95767.53;;;21.74;100.00
20624;BME280;10471;42.736;23.346;2023-07-16T03:31:38;95757.59;;;21.74;100.00
20624;BME280;10471;42.736;23.346;2023-07-16T03:34:03;95756.03;;;21.73;100.00
20624;BME280;10471;42.736;23.346;2023-07-16T03:36:29;95759.84;;;21.72;100.00
20624;BME280;10471;42.736;23.346;2023-07-16T03:38:54;95754.94;;;21.74;100.00
20624;BME280;10471;42.736;23.346;2023-07-16T03:41:20;95759.19;;;21.75;100.00
20624;BME280;10471;42.736;23.346;2023-07-16T03:43:45;95762.97;;;21.74;100.00
20624;BME280;10471;42.736;23.346;2023-07-16T03:46:10;95766.09;;;21.76;100.00
20624;BME280;10471;42.736;23.346;2023-07-16T03:48:36;95765.66;;;21.74;100.00
20624;BME280;10471;42.736;23.346;2023-07-16T03:51:01;95767.66;;;21.77;100.00
20624;BME280;10471;42.736;23.346;2023-07-16T03:53:27;95763.88;;;21.78;100.00
20624;BME280;10471;42.736;23.346;2023-07-16T03:55:52;95761.53;;;21.77;100.00
20624;BME280;10471;42.736;23.346;2023-07-16T03:58:17;95768.47;;;21.77;100.00
20624;BME280;10471;42.736;23.346;2023-07-16T04:00:43;95768.13;;;21.79;100.00
20624;BME280;10471;42.736;23.346;2023-07-16T04:03:09;95770.94;;;21.82;100.00
20624;BME280;10471;42.736;23.346;2023-07-16T04:05:34;95772.16;;;21.85;100.00
20624;BME280;10471;42.736;23.346;2023-07-16T04:08:00;95773.47;;;21.91;100.00
20624;BME280;10471;42.736;23.346;2023-07-16T04:10:25;95776.84;;;21.88;100.00
20624;BME280;10471;42.736;23.346;2023-07-16T04:12:50;95775.16;;;21.95;100.00
20624;BME280;10471;42.736;23.346;2023-07-16T04:15:16;95771.91;;;22.02;100.00
20624;BME280;10471;42.736;23.346;2023-07-16T04:17:41;95774.81;;;22.09;100.00
20624;BME280;10471;42.736;23.346;2023-07-16T04:20:07;95780.41;;;22.16;100.00
20624;BME280;10471;42.736;23.346;2023-07-16T04:22:33;95777.94;;;22.23;100.00
20624;BME280;10471;42.736;23.346;2023-07-16T04:24:59;95780.88;;;22.30;100.00
20624;BME280;10471;42.736;23.346;2023-07-16T04:27:25;95775.03;;;22.40;100.00
20624;BME280;10471;42.736;23.346;2023-07-16T04:29:50;95777.94;;;22.46;100.00
20624;BME280;10471;42.736;23.346;2023-07-16T04:32:15;95783.06;;;22.51;100.00
20624;BME280;10471;42.736;23.346;2023-07-16T04:34:41;95791.09;;;22.63;100.00
20624;BME280;10471;42.736;23.346;2023-07-16T04:37:06;95786.16;;;22.65;100.00
20624;BME280;10471;42.736;23.346;2023-07-16T04:39:32;95796.00;;;22.73;100.00
20624;BME280;10471;42.736;23.346;2023-07-16T04:41:57;95788.59;;;22.82;100.00
20624;BME280;10471;42.736;23.346;2023-07-16T04:44:23;95805.59;;;22.86;100.00
20624;BME280;10471;42.736;23.346;2023-07-16T04:46:48;95804.69;;;22.94;100.00
20624;BME280;10471;42.736;23.346;2023-07-16T04:49:14;95802.31;;;23.05;100.00
20624;BME280;10471;42.736;23.346;2023-07-16T04:51:39;95805.06;;;23.20;100.00
20624;BME280;10471;42.736;23.346;2023-07-16T04:54:04;95806.09;;;23.31;100.00
20624;BME280;10471;42.736;23.346;2023-07-16T04:56:30;95804.47;;;23.42;100.00
20624;BME280;10471;42.736;23.346;2023-07-16T04:58:55;95801.72;;;23.54;100.00
20624;BME280;10471;42.736;23.346;2023-07-16T05:01:20;95805.91;;;23.67;100.00
20624;BME280;10471;42.736;23.346;2023-07-16T05:03:46;95806.47;;;23.72;100.00
20624;BME280;10471;42.736;23.346;2023-07-16T05:06:11;95808.97;;;23.80;100.00
20624;BME280;10471;42.736;23.346;2023-07-16T05:08:36;95806.91;;;23.89;100.00
20624;BME280;10471;42.736;23.346;2023-07-16T05:11:02;95807.06;;;23.96;100.00
20624;BME280;10471;42.736;23.346;2023-07-16T05:13:27;95803.41;;;24.04;100.00
20624;BME280;10471;42.736;23.346;2023-07-16T05:15:53;95800.97;;;24.15;100.00
20624;BME280;10471;42.736;23.346;2023-07-16T05:18:18;95806.28;;;24.27;100.00
20624;BME280;10471;42.736;23.346;2023-07-16T05:20:47;95802.16;;;24.33;100.00
20624;BME280;10471;42.736;23.346;2023-07-16T05:23:13;95806.25;;;24.42;100.00
20624;BME280;10471;42.736;23.346;2023-07-16T05:25:38;95810.41;;;24.55;100.00
20624;BME280;10471;42.736;23.346;2023-07-16T05:28:04;95808.72;;;24.66;100.00
20624;BME280;10471;42.736;23.346;2023-07-16T05:30:29;95804.19;;;24.70;100.00
20624;BME280;10471;42.736;23.346;2023-07-16T05:32:54;95808.31;;;24.83;100.00
20624;BME280;10471;42.736;23.346;2023-07-16T05:35:20;95811.56;;;24.92;100.00
20624;BME280;10471;42.736;23.346;2023-07-16T05:37:45;95814.44;;;24.99;100.00
20624;BME280;10471;42.736;23.346;2023-07-16T05:40:11;95817.78;;;25.11;100.00
20624;BME280;10471;42.736;23.346;2023-07-16T05:42:36;95821.41;;;25.18;100.00
20624;BME280;10471;42.736;23.346;2023-07-16T05:45:02;95817.00;;;25.29;100.00
20624;BME280;10471;42.736;23.346;2023-07-16T05:47:27;95820.69;;;25.40;100.00
20624;BME280;10471;42.736;23.346;2023-07-16T05:49:53;95823.41;;;25.40;100.00
20624;BME280;10471;42.736;23.346;2023-07-16T05:52:18;95831.34;;;25.52;100.00
20624;BME280;10471;42.736;23.346;2023-07-16T05:54:44;95828.34;;;25.57;100.00
20624;BME280;10471;42.736;23.346;2023-07-16T05:57:10;95832.31;;;25.63;100.00
20624;BME280;10471;42.736;23.346;2023-07-16T05:59:35;95825.50;;;25.69;100.00
20624;BME280;10471;42.736;23.346;2023-07-16T06:02:05;95832.59;;;25.77;100.00
20624;BME280;10471;42.736;23.346;2023-07-16T06:04:31;95828.94;;;25.88;100.00
20624;BME280;10471;42.736;23.346;2023-07-16T06:06:57;95830.13;;;25.91;100.00
20624;BME280;10471;42.736;23.346;2023-07-16T06:09:23;95827.50;;;25.94;100.00
20624;BME280;10471;42.736;23.346;2023-07-16T06:11:48;95832.34;;;26.08;100.00
20624;BME280;10471;42.736;23.346;2023-07-16T06:14:14;95837.06;;;26.11;100.00
20624;BME280;10471;42.736;23.346;2023-07-16T06:16:40;95839.56;;;26.23;100.00
20624;BME280;10471;42.736;23.346;2023-07-16T06:19:05;95833.31;;;26.41;100.00
20624;BME280;10471;42.736;23.346;2023-07-16T06:21:31;95832.22;;;26.46;100.00
20624;BME280;10471;42.736;23.346;2023-07-16T06:23:56;95835.44;;;26.54;100.00
20624;BME280;10471;42.736;23.346;2023-07-16T06:26:22;95832.03;;;26.57;100.00
20624;BME280;10471;42.736;23.346;2023-07-16T06:28:47;95830.88;;;26.58;100.00
20624;BME280;10471;42.736;23.346;2023-07-16T06:31:16;95827.91;;;26.67;100.00
20624;BME280;10471;42.736;23.346;2023-07-16T06:33:42;95828.06;;;26.77;100.00
20624;BME280;10471;42.736;23.346;2023-07-16T06:36:07;95830.84;;;26.84;100.00
20624;BME280;10471;42.736;23.346;2023-07-16T06:38:32;95827.88;;;26.93;100.00
20624;BME280;10471;42.736;23.346;2023-07-16T06:40:58;95830.00;;;27.06;100.00
20624;BME280;10471;42.736;23.346;2023-07-16T06:43:23;95823.13;;;27.12;100.00
20624;BME280;10471;42.736;23.346;2023-07-16T06:45:49;95820.47;;;27.16;100.00
20624;BME280;10471;42.736;23.346;2023-07-16T06:48:17;95822.91;;;27.24;100.00
20624;BME280;10471;42.736;23.346;2023-07-16T06:50:43;95825.00;;;27.37;100.00
20624;BME280;10471;42.736;23.346;2023-07-16T06:53:09;95825.91;;;27.52;100.00
20624;BME280;10471;42.736;23.346;2023-07-16T06:55:34;95825.25;;;27.58;100.00
20624;BME280;10471;42.736;23.346;2023-07-16T06:58:00;95825.34;;;27.69;100.00
20624;BME280;10471;42.736;23.346;2023-07-16T07:00:26;95823.91;;;27.78;100.00
20624;BME280;10471;42.736;23.346;2023-07-16T07:02:51;95823.53;;;27.80;100.00
20624;BME280;10471;42.736;23.346;2023-07-16T07:05:17;95824.00;;;27.88;100.00
20624;BME280;10471;42.736;23.346;2023-07-16T07:07:42;95826.44;;;28.00;100.00
20624;BME280;10471;42.736;23.346;2023-07-16T07:10:10;95815.63;;;28.04;100.00
20624;BME280;10471;42.736;23.346;2023-07-16T07:12:36;95827.22;;;28.01;100.00
20624;BME280;10471;42.736;23.346;2023-07-16T07:15:07;95824.16;;;28.06;100.00
20624;BME280;10471;42.736;23.346;2023-07-16T07:17:33;95820.47;;;28.21;100.00
20624;BME280;10471;42.736;23.346;2023-07-16T07:19:58;95824.41;;;28.30;100.00
20624;BME280;10471;42.736;23.346;2023-07-16T07:22:24;95817.91;;;28.42;99.25
20624;BME280;10471;42.736;23.346;2023-07-16T07:24:49;95831.38;;;28.31;100.00
20624;BME280;10471;42.736;23.346;2023-07-16T07:27:15;95822.88;;;28.33;100.00
20624;BME280;10471;42.736;23.346;2023-07-16T07:29:41;95824.13;;;28.46;100.00
20624;BME280;10471;42.736;23.346;2023-07-16T07:32:07;95821.91;;;28.58;97.28
20624;BME280;10471;42.736;23.346;2023-07-16T07:34:32;95820.75;;;28.62;100.00
20624;BME280;10471;42.736;23.346;2023-07-16T07:36:57;95827.78;;;28.70;97.28
20624;BME280;10471;42.736;23.346;2023-07-16T07:39:23;95813.84;;;28.72;98.01
20624;BME280;10471;42.736;23.346;2023-07-16T07:41:48;95817.78;;;28.78;94.34
20624;BME280;10471;42.736;23.346;2023-07-16T07:44:14;95822.06;;;28.79;93.40
20624;BME280;10471;42.736;23.346;2023-07-16T07:46:39;95817.09;;;28.91;95.76
20624;BME280;10471;42.736;23.346;2023-07-16T07:49:05;95817.16;;;29.05;95.42
20624;BME280;10471;42.736;23.346;2023-07-16T07:51:31;95814.09;;;29.14;91.63
20624;BME280;10471;42.736;23.346;2023-07-16T07:53:56;95813.34;;;29.23;92.27
20624;BME280;10471;42.736;23.346;2023-07-16T07:56:21;95807.19;;;29.33;91.29
20624;BME280;10471;42.736;23.346;2023-07-16T07:58:47;95809.94;;;29.40;92.01
20624;BME280;10471;42.736;23.346;2023-07-16T08:01:12;95807.28;;;29.47;88.76
20624;BME280;10471;42.736;23.346;2023-07-16T08:03:38;95815.78;;;29.46;93.42
20624;BME280;10471;42.736;23.346;2023-07-16T08:06:03;95810.78;;;29.58;93.99
20624;BME280;10471;42.736;23.346;2023-07-16T08:08:28;95809.63;;;29.66;88.96
20624;BME280;10471;42.736;23.346;2023-07-16T08:10:56;95804.97;;;29.63;89.13
20624;BME280;10471;42.736;23.346;2023-07-16T08:13:21;95801.88;;;29.75;92.78
20624;BME280;10471;42.736;23.346;2023-07-16T08:15:46;95808.13;;;29.86;89.07
20624;BME280;10471;42.736;23.346;2023-07-16T08:18:13;95800.38;;;29.88;84.73
20624;BME280;10471;42.736;23.346;2023-07-16T08:20:38;95813.63;;;29.96;87.69
20624;BME280;10471;42.736;23.346;2023-07-16T08:23:05;95811.69;;;30.04;85.14
20624;BME280;10471;42.736;23.346;2023-07-16T08:25:31;95809.72;;;30.08;88.36
20624;BME280;10471;42.736;23.346;2023-07-16T08:27:56;95817.50;;;30.13;88.16
20624;BME280;10471;42.736;23.346;2023-07-16T08:30:22;95812.06;;;30.16;83.63
20624;BME280;10471;42.736;23.346;2023-07-16T08:32:47;95807.41;;;30.20;81.88
20624;BME280;10471;42.736;23.346;2023-07-16T08:35:12;95813.63;;;30.28;86.96
20624;BME280;10471;42.736;23.346;2023-07-16T08:37:44;95808.97;;;30.21;84.84
20624;BME280;10471;42.736;23.346;2023-07-16T08:40:11;95799.63;;;30.19;85.33
20624;BME280;10471;42.736;23.346;2023-07-16T08:42:38;95808.16;;;30.28;84.04
20624;BME280;10471;42.736;23.346;2023-07-16T08:45:06;95802.75;;;30.35;86.87
20624;BME280;10471;42.736;23.346;2023-07-16T08:47:33;95802.31;;;30.26;83.72
20624;BME280;10471;42.736;23.346;2023-07-16T08:50:00;95801.59;;;30.43;84.80
20624;BME280;10471;42.736;23.346;2023-07-16T08:52:27;95793.81;;;30.45;83.02
20624;BME280;10471;42.736;23.346;2023-07-16T08:54:53;95808.19;;;30.56;78.83
20624;BME280;10471;42.736;23.346;2023-07-16T08:57:19;95799.63;;;30.57;84.89
20624;BME280;10471;42.736;23.346;2023-07-16T08:59:48;95788.69;;;30.71;80.88
20624;BME280;10471;42.736;23.346;2023-07-16T09:02:14;95798.03;;;30.80;77.57
20624;BME280;10471;42.736;23.346;2023-07-16T09:04:40;95798.38;;;30.89;79.71
20624;BME280;10471;42.736;23.346;2023-07-16T09:07:05;95798.00;;;30.87;79.83
20624;BME280;10471;42.736;23.346;2023-07-16T09:09:31;95798.75;;;31.02;80.35
20624;BME280;10471;42.736;23.346;2023-07-16T09:11:59;95792.53;;;30.94;81.42
20624;BME280;10471;42.736;23.346;2023-07-16T09:14:24;95792.56;;;30.98;79.56
20624;BME280;10471;42.736;23.346;2023-07-16T09:16:51;95790.22;;;31.03;80.82
20624;BME280;10471;42.736;23.346;2023-07-16T09:19:17;95787.03;;;31.15;81.13
20624;BME280;10471;42.736;23.346;2023-07-16T09:21:46;95781.16;;;31.23;75.20
20624;BME280;10471;42.736;23.346;2023-07-16T09:24:12;95779.19;;;31.27;75.68
20624;BME280;10471;42.736;23.346;2023-07-16T09:26:37;95779.16;;;31.38;78.83
20624;BME280;10471;42.736;23.346;2023-07-16T09:29:07;95781.47;;;31.50;76.21
20624;BME280;10471;42.736;23.346;2023-07-16T09:31:33;95780.28;;;31.44;72.27
20624;BME280;10471;42.736;23.346;2023-07-16T09:33:58;95781.88;;;31.38;72.78
20624;BME280;10471;42.736;23.346;2023-07-16T09:36:25;95776.38;;;31.52;78.06
20624;BME280;10471;42.736;23.346;2023-07-16T09:38:53;95774.81;;;31.54;77.22
20624;BME280;10471;42.736;23.346;2023-07-16T09:41:23;95773.94;;;31.68;76.42
20624;BME280;10471;42.736;23.346;2023-07-16T09:43:48;95781.66;;;31.80;65.69
20624;BME280;10471;42.736;23.346;2023-07-16T09:46:14;95780.84;;;31.83;75.13
20624;BME280;10471;42.736;23.346;2023-07-16T09:48:39;95772.53;;;32.00;72.03
20624;BME280;10471;42.736;23.346;2023-07-16T09:51:07;95766.63;;;32.12;65.57
20624;BME280;10471;42.736;23.346;2023-07-16T09:53:36;95770.91;;;32.16;67.69
20624;BME280;10471;42.736;23.346;2023-07-16T09:56:02;95768.78;;;32.34;72.74
20624;BME280;10471;42.736;23.346;2023-07-16T09:58:29;95766.75;;;32.42;69.25
20624;BME280;10471;42.736;23.346;2023-07-16T10:00:56;95766.38;;;32.43;65.38
20624;BME280;10471;42.736;23.346;2023-07-16T10:03:22;95758.56;;;32.42;64.00
20624;BME280;10471;42.736;23.346;2023-07-16T10:05:47;95755.03;;;32.45;66.86
20624;BME280;10471;42.736;23.346;2023-07-16T10:08:18;95753.75;;;32.60;72.27
20624;BME280;10471;42.736;23.346;2023-07-16T10:10:53;95748.97;;;32.67;72.53
20624;BME280;10471;42.736;23.346;2023-07-16T10:13:22;95750.44;;;32.75;68.19
20624;BME280;10471;42.736;23.346;2023-07-16T10:15:56;95750.75;;;32.84;62.84
20624;BME280;10471;42.736;23.346;2023-07-16T10:21:03;95751.91;;;32.86;65.28
20624;BME280;10471;42.736;23.346;2023-07-16T10:23:42;95740.34;;;33.09;69.08
20624;BME280;10471;42.736;23.346;2023-07-16T10:26:10;95738.41;;;33.35;66.04
20624;BME280;10471;42.736;23.346;2023-07-16T10:28:36;95738.97;;;33.53;58.88
20624;BME280;10471;42.736;23.346;2023-07-16T10:31:02;95731.75;;;33.66;61.27
20624;BME280;10471;42.736;23.346;2023-07-16T10:33:28;95729.16;;;33.82;57.83
20624;BME280;10471;42.736;23.346;2023-07-16T10:35:56;95736.69;;;34.01;62.81
20624;BME280;10471;42.736;23.346;2023-07-16T10:38:24;95734.94;;;33.88;55.66
20624;BME280;10471;42.736;23.346;2023-07-16T10:40:49;95726.13;;;34.03;59.56
20624;BME280;10471;42.736;23.346;2023-07-16T10:43:15;95728.16;;;34.22;58.40
20624;BME280;10471;42.736;23.346;2023-07-16T10:45:40;95732.88;;;34.41;54.65
20624;BME280;10471;42.736;23.346;2023-07-16T10:48:06;95730.00;;;34.51;54.26
20624;BME280;10471;42.736;23.346;2023-07-16T10:50:32;95731.22;;;34.69;54.20
20624;BME280;10471;42.736;23.346;2023-07-16T10:52:59;95727.91;;;34.59;50.93
20624;BME280;10471;42.736;23.346;2023-07-16T10:55:26;95722.16;;;34.72;53.08
20624;BME280;10471;42.736;23.346;2023-07-16T10:57:52;95720.91;;;34.96;55.84
20624;BME280;10471;42.736;23.346;2023-07-16T11:00:19;95723.03;;;35.08;53.88
20624;BME280;10471;42.736;23.346;2023-07-16T11:02:46;95720.69;;;34.68;51.11
20624;BME280;10471;42.736;23.346;2023-07-16T11:05:16;95714.06;;;34.85;50.63
20624;BME280;10471;42.736;23.346;2023-07-16T11:07:46;95712.28;;;34.98;52.58
20624;BME280;10471;42.736;23.346;2023-07-16T11:10:11;95717.53;;;35.28;49.29
20624;BME280;10471;42.736;23.346;2023-07-16T11:12:37;95709.66;;;35.49;48.36
20624;BME280;10471;42.736;23.346;2023-07-16T11:15:03;95714.63;;;35.34;46.53
20624;BME280;10471;42.736;23.346;2023-07-16T11:17:28;95709.16;;;35.70;50.44
20624;BME280;10471;42.736;23.346;2023-07-16T11:19:54;95708.81;;;35.68;49.70
20624;BME280;10471;42.736;23.346;2023-07-16T11:22:24;95701.56;;;35.93;49.66
20624;BME280;10471;42.736;23.346;2023-07-16T11:24:50;95699.06;;;36.14;46.68
20624;BME280;10471;42.736;23.346;2023-07-16T11:27:27;95698.38;;;36.26;44.63
20624;BME280;10471;42.736;23.346;2023-07-16T11:29:54;95697.16;;;36.43;43.58
20624;BME280;10471;42.736;23.346;2023-07-16T11:32:29;95697.16;;;35.80;43.20
20624;BME280;10471;42.736;23.346;2023-07-16T11:34:55;95691.66;;;35.64;44.93
20624;BME280;10471;42.736;23.346;2023-07-16T11:37:22;95695.59;;;35.79;45.40
20624;BME280;10471;42.736;23.346;2023-07-16T11:39:49;95691.50;;;36.18;46.91
20624;BME280;10471;42.736;23.346;2023-07-16T11:42:19;95687.72;;;36.44;47.35
20624;BME280;10471;42.736;23.346;2023-07-16T11:44:49;95683.75;;;36.45;45.47
20624;BME280;10471;42.736;23.346;2023-07-16T11:47:14;95679.38;;;36.76;42.38
20624;BME280;10471;42.736;23.346;2023-07-16T11:49:40;95686.88;;;36.75;41.73
20624;BME280;10471;42.736;23.346;2023-07-16T11:52:06;95683.50;;;36.84;41.81
20624;BME280;10471;42.736;23.346;2023-07-16T11:54:31;95682.97;;;37.30;44.50
20624;BME280;10471;42.736;23.346;2023-07-16T11:56:56;95681.78;;;37.31;39.90
20624;BME280;10471;42.736;23.346;2023-07-16T11:59:22;95685.06;;;37.38;40.18
20624;BME280;10471;42.736;23.346;2023-07-16T12:01:48;95682.28;;;37.26;40.81
20624;BME280;10471;42.736;23.346;2023-07-16T12:04:15;95678.72;;;37.13;41.51
20624;BME280;10471;42.736;23.346;2023-07-16T12:06:41;95672.19;;;36.94;39.76
20624;BME280;10471;42.736;23.346;2023-07-16T12:09:06;95681.59;;;36.81;39.22
20624;BME280;10471;42.736;23.346;2023-07-16T12:11:32;95675.56;;;36.86;38.44
20624;BME280;10471;42.736;23.346;2023-07-16T12:13:57;95673.09;;;36.91;38.00
20624;BME280;10471;42.736;23.346;2023-07-16T12:16:22;95677.78;;;36.91;37.15
20624;BME280;10471;42.736;23.346;2023-07-16T12:18:48;95666.16;;;36.99;36.01
20624;BME280;10471;42.736;23.346;2023-07-16T12:21:13;95676.41;;;37.11;36.65
20624;BME280;10471;42.736;23.346;2023-07-16T12:23:38;95668.88;;;37.28;36.02
20624;BME280;10471;42.736;23.346;2023-07-16T12:26:04;95671.97;;;37.54;36.16
20624;BME280;10471;42.736;23.346;2023-07-16T12:28:29;95667.81;;;37.75;37.15
20624;BME280;10471;42.736;23.346;2023-07-16T12:30:54;95661.84;;;37.76;35.99
20624;BME280;10471;42.736;23.346;2023-07-16T12:33:20;95659.97;;;37.73;36.07
20624;BME280;10471;42.736;23.346;2023-07-16T12:35:45;95655.41;;;38.04;35.63
20624;BME280;10471;42.736;23.346;2023-07-16T12:38:12;95660.53;;;38.39;36.59
20624;BME280;10471;42.736;23.346;2023-07-16T12:40:37;95649.56;;;38.82;36.20